DLH57R EDDM-EDDV
Flight info
| Callsign | DLH57R |
|---|---|
| Flight time | N/A |
| Altitude | 30000 |
| Route | INPUD3Q/08L INPUD Y102 UPALA M726 LASTO M852 BIRKA/N0431F240 T803 GITEX GITEX1Z |
| Aircraft | A320/M-SDE3FGHIRWY/LB1 |
Departure
| Time | 2026-05-01 13:30 |
|---|---|
| Airport | Munich Airport (EDDM) |
Arrival
| Time | N/A |
|---|---|
| Airport | Hannover Airport (EDDV) |
| Time | Latitude | Longitude | Altitude | Speed | Heading |
|---|---|---|---|---|---|
| 2026-05-01 13:16 | 48.35319 | 11.79760 | 1485 ft | 0 kts | 83° |
| 2026-05-01 13:18 | 48.35318 | 11.79740 | 1473 ft | 4 kts | 83° |
| 2026-05-01 13:19 | 48.35315 | 11.79700 | 1472 ft | 4 kts | 83° |
| 2026-05-01 13:19 | 48.35312 | 11.79667 | 1474 ft | 4 kts | 77° |
| 2026-05-01 13:19 | 48.35279 | 11.79620 | 1479 ft | 3 kts | 354° |
| 2026-05-01 13:20 | 48.35260 | 11.79624 | 1479 ft | 0 kts | 353° |
| 2026-05-01 13:22 | 48.35299 | 11.79616 | 1475 ft | 13 kts | 353° |
| 2026-05-01 13:22 | 48.35425 | 11.79561 | 1482 ft | 23 kts | 318° |
| 2026-05-01 13:22 | 48.35579 | 11.79501 | 1473 ft | 24 kts | 355° |
| 2026-05-01 13:23 | 48.35747 | 11.79472 | 1475 ft | 25 kts | 353° |
| 2026-05-01 13:23 | 48.35897 | 11.79404 | 1480 ft | 23 kts | 308° |
| 2026-05-01 13:23 | 48.35946 | 11.79347 | 1485 ft | 0 kts | 352° |
| 2026-05-01 13:24 | 48.35949 | 11.79346 | 1475 ft | 4 kts | 352° |
| 2026-05-01 13:24 | 48.36032 | 11.79326 | 1474 ft | 20 kts | 349° |
| 2026-05-01 13:25 | 48.36054 | 11.78832 | 1485 ft | 27 kts | 263° |
| 2026-05-01 13:25 | 48.36037 | 11.78587 | 1485 ft | 22 kts | 264° |
| 2026-05-01 13:25 | 48.36021 | 11.78367 | 1475 ft | 20 kts | 263° |
| 2026-05-01 13:25 | 48.36005 | 11.78165 | 1478 ft | 19 kts | 263° |
| 2026-05-01 13:26 | 48.35990 | 11.77958 | 1474 ft | 21 kts | 264° |
| 2026-05-01 13:26 | 48.35976 | 11.77748 | 1480 ft | 19 kts | 264° |
| 2026-05-01 13:26 | 48.35962 | 11.77555 | 1472 ft | 19 kts | 262° |
| 2026-05-01 13:26 | 48.35941 | 11.77339 | 1485 ft | 21 kts | 265° |
| 2026-05-01 13:27 | 48.35924 | 11.77112 | 1477 ft | 22 kts | 273° |
| 2026-05-01 13:27 | 48.36026 | 11.76979 | 1481 ft | 20 kts | 353° |
| 2026-05-01 13:27 | 48.36176 | 11.76951 | 1480 ft | 0 kts | 352° |
| 2026-05-01 13:28 | 48.36200 | 11.76946 | 1485 ft | 12 kts | 352° |
| 2026-05-01 13:29 | 48.36332 | 11.77486 | 1485 ft | 72 kts | 83° |
| 2026-05-01 13:29 | 48.36531 | 11.80136 | 1640 ft | 164 kts | 84° |
| 2026-05-01 13:30 | 48.37833 | 11.87302 | 3876 ft | 230 kts | 36° |
| 2026-05-01 13:31 | 48.41296 | 11.87686 | 4917 ft | 287 kts | 342° |
| 2026-05-01 13:31 | 48.45328 | 11.80951 | 7829 ft | 296 kts | 308° |
| 2026-05-01 13:32 | 48.47849 | 11.76008 | 9745 ft | 298 kts | 312° |
| 2026-05-01 13:33 | 48.51918 | 11.68743 | 12291 ft | 306 kts | 313° |
| 2026-05-01 13:33 | 48.54734 | 11.63814 | 13892 ft | 314 kts | 314° |
| 2026-05-01 13:34 | 48.57962 | 11.59389 | 15258 ft | 319 kts | 333° |
| 2026-05-01 13:34 | 48.62310 | 11.56689 | 15546 ft | 360 kts | 342° |
| 2026-05-01 13:35 | 48.67230 | 11.53888 | 16053 ft | 390 kts | 342° |
| 2026-05-01 13:35 | 48.69784 | 11.52409 | 16616 ft | 395 kts | 342° |
| 2026-05-01 13:35 | 48.74956 | 11.49395 | 17783 ft | 402 kts | 342° |
| 2026-05-01 13:36 | 48.77580 | 11.47864 | 18365 ft | 405 kts | 342° |
| 2026-05-01 13:36 | 48.80222 | 11.46327 | 18905 ft | 409 kts | 342° |
| 2026-05-01 13:36 | 48.85567 | 11.43218 | 19921 ft | 414 kts | 341° |
| 2026-05-01 13:37 | 48.88263 | 11.41645 | 20402 ft | 417 kts | 341° |
| 2026-05-01 13:37 | 48.90978 | 11.40057 | 20916 ft | 419 kts | 341° |
| 2026-05-01 13:37 | 48.93705 | 11.38461 | 21428 ft | 421 kts | 341° |
| 2026-05-01 13:37 | 48.96445 | 11.36859 | 21927 ft | 423 kts | 341° |
| 2026-05-01 13:38 | 49.01973 | 11.33621 | 22869 ft | 428 kts | 341° |
| 2026-05-01 13:38 | 49.04719 | 11.32010 | 23314 ft | 430 kts | 341° |
| 2026-05-01 13:38 | 49.07523 | 11.30365 | 23769 ft | 432 kts | 341° |
| 2026-05-01 13:39 | 49.10333 | 11.28714 | 24162 ft | 434 kts | 341° |
| 2026-05-01 13:39 | 49.13158 | 11.27052 | 24534 ft | 436 kts | 341° |
| 2026-05-01 13:39 | 49.15998 | 11.25378 | 24925 ft | 438 kts | 341° |
| 2026-05-01 13:39 | 49.18852 | 11.23725 | 25288 ft | 439 kts | 343° |
| 2026-05-01 13:40 | 49.21818 | 11.22580 | 25624 ft | 439 kts | 353° |
| 2026-05-01 13:40 | 49.24853 | 11.22160 | 25965 ft | 439 kts | 1° |
| 2026-05-01 13:40 | 49.27910 | 11.22186 | 26295 ft | 440 kts | 2° |
| 2026-05-01 13:40 | 49.30973 | 11.22221 | 26622 ft | 442 kts | 2° |
| 2026-05-01 13:41 | 49.34060 | 11.22253 | 26946 ft | 444 kts | 2° |
| 2026-05-01 13:41 | 49.37151 | 11.22280 | 27275 ft | 446 kts | 2° |
| 2026-05-01 13:41 | 49.40257 | 11.22305 | 27570 ft | 447 kts | 2° |
| 2026-05-01 13:41 | 49.43380 | 11.22329 | 27871 ft | 450 kts | 1° |
| 2026-05-01 13:42 | 49.46526 | 11.22352 | 28106 ft | 453 kts | 1° |
| 2026-05-01 13:42 | 49.49684 | 11.22376 | 28423 ft | 454 kts | 1° |
| 2026-05-01 13:42 | 49.52843 | 11.22396 | 28853 ft | 453 kts | 1° |
| 2026-05-01 13:42 | 49.55992 | 11.22415 | 29301 ft | 452 kts | 1° |
| 2026-05-01 13:43 | 49.59125 | 11.22429 | 29748 ft | 450 kts | 1° |
| 2026-05-01 13:43 | 49.62257 | 11.22439 | 30194 ft | 450 kts | 1° |
| 2026-05-01 13:43 | 49.65387 | 11.22447 | 30341 ft | 449 kts | 1° |
| 2026-05-01 13:44 | 49.71637 | 11.22455 | 30362 ft | 449 kts | 1° |
| 2026-05-01 13:44 | 49.77846 | 11.22465 | 30365 ft | 449 kts | 1° |
| 2026-05-01 13:45 | 49.84094 | 11.22489 | 30373 ft | 449 kts | 1° |
| 2026-05-01 13:45 | 49.90345 | 11.22537 | 30373 ft | 449 kts | 1° |
| 2026-05-01 13:46 | 49.96599 | 11.22580 | 30371 ft | 450 kts | 1° |
| 2026-05-01 13:46 | 50.02862 | 11.22618 | 30380 ft | 450 kts | 1° |
| 2026-05-01 13:47 | 50.09127 | 11.22652 | 30376 ft | 450 kts | 1° |
| 2026-05-01 13:47 | 50.15396 | 11.22693 | 30372 ft | 450 kts | 1° |
| 2026-05-01 13:48 | 50.21665 | 11.22728 | 30376 ft | 450 kts | 1° |
| 2026-05-01 13:48 | 50.27928 | 11.22762 | 30374 ft | 450 kts | 1° |
| 2026-05-01 13:49 | 50.34189 | 11.22795 | 30374 ft | 450 kts | 1° |
| 2026-05-01 13:49 | 50.40445 | 11.22167 | 30372 ft | 451 kts | 355° |
| 2026-05-01 13:50 | 50.46691 | 11.21223 | 30379 ft | 451 kts | 355° |
| 2026-05-01 13:50 | 50.52899 | 11.20275 | 30365 ft | 451 kts | 355° |
| 2026-05-01 13:51 | 50.59146 | 11.19322 | 30364 ft | 451 kts | 355° |
| 2026-05-01 13:51 | 50.65399 | 11.18368 | 30367 ft | 452 kts | 355° |
| 2026-05-01 13:52 | 50.71659 | 11.17414 | 30369 ft | 452 kts | 356° |
| 2026-05-01 13:52 | 50.77930 | 11.16465 | 30385 ft | 452 kts | 356° |
| 2026-05-01 13:53 | 50.84192 | 11.15511 | 30367 ft | 453 kts | 355° |
| 2026-05-01 13:53 | 50.93602 | 11.14061 | 30368 ft | 453 kts | 355° |
| 2026-05-01 13:54 | 50.99872 | 11.13089 | 30366 ft | 453 kts | 355° |
| 2026-05-01 13:54 | 51.06142 | 11.12107 | 30367 ft | 453 kts | 355° |
| 2026-05-01 13:55 | 51.12387 | 11.10822 | 30366 ft | 454 kts | 347° |
| 2026-05-01 13:55 | 51.18268 | 11.07265 | 30368 ft | 456 kts | 337° |
| 2026-05-01 13:56 | 51.24061 | 11.03118 | 30371 ft | 457 kts | 337° |
| 2026-05-01 13:56 | 51.29861 | 10.98977 | 30365 ft | 457 kts | 337° |
| 2026-05-01 13:57 | 51.34699 | 10.95510 | 30365 ft | 458 kts | 337° |
| 2026-05-01 13:57 | 51.41524 | 10.90701 | 30366 ft | 459 kts | 338° |
| 2026-05-01 13:58 | 51.47447 | 10.86890 | 30373 ft | 459 kts | 340° |
| 2026-05-01 13:58 | 51.53395 | 10.83135 | 30371 ft | 459 kts | 339° |
| 2026-05-01 13:59 | 51.59321 | 10.79304 | 30367 ft | 459 kts | 339° |
| 2026-05-01 13:59 | 51.65241 | 10.75407 | 30369 ft | 460 kts | 340° |
| 2026-05-01 14:00 | 51.71162 | 10.71502 | 30378 ft | 460 kts | 339° |
| 2026-05-01 14:00 | 51.77089 | 10.67598 | 30370 ft | 460 kts | 339° |
| 2026-05-01 14:01 | 51.83024 | 10.63679 | 30353 ft | 461 kts | 339° |
| 2026-05-01 14:01 | 51.88971 | 10.59739 | 30361 ft | 462 kts | 339° |
| 2026-05-01 14:02 | 51.91933 | 10.57765 | 29825 ft | 456 kts | 338° |
| 2026-05-01 14:02 | 51.94743 | 10.55413 | 27915 ft | 459 kts | 328° |
| 2026-05-01 14:02 | 51.97284 | 10.52201 | 26006 ft | 467 kts | 317° |
| 2026-05-01 14:02 | 51.99399 | 10.48360 | 24858 ft | 458 kts | 308° |
| 2026-05-01 14:03 | 52.01140 | 10.44083 | 23680 ft | 453 kts | 299° |
| 2026-05-01 14:03 | 52.02441 | 10.39450 | 22643 ft | 450 kts | 289° |
| 2026-05-01 14:03 | 52.03396 | 10.34632 | 21789 ft | 447 kts | 287° |
| 2026-05-01 14:03 | 52.04321 | 10.29821 | 20931 ft | 447 kts | 287° |
| 2026-05-01 14:04 | 52.05210 | 10.25165 | 20096 ft | 447 kts | 287° |
| 2026-05-01 14:04 | 52.06081 | 10.20826 | 19290 ft | 448 kts | 289° |
| 2026-05-01 14:04 | 52.07334 | 10.16184 | 18196 ft | 451 kts | 298° |